Аэропорт: Казань. Казань

ICAO: UWKD

METAR:
2019-09-16 01:00:00
UWKD 160100Z 22002MPS CAVOK 07/05 Q1007 R29/70D NOSIG RMK QFE744/0992
METAR:
2019-09-15 23:04:00
TAF AMD UWKD 152304Z 1600/1624 21005G12MPS 9999 BKN020 TX11/1612Z TN06/1601Z TEMPO 1600/1603 3100 -SHRA BKN011CB TEMPO 1603/1609 20007G15MPS 3100 -SHRA BKN011CB TEMPO 1609/1621 20008G16MPS 3100 -SHRA BKN011CB